sensor_id;sensor_type;location;lat;lon;timestamp;P1;durP1;ratioP1;P2;durP2;ratioP2
60098;SDS011;62818;49.394;8.686;2023-04-15T00:00:53;4.03;;;2.80;;
60098;SDS011;62818;49.394;8.686;2023-04-15T00:01:54;4.23;;;2.77;;
60098;SDS011;62818;49.394;8.686;2023-04-15T00:03:01;6.65;;;3.13;;
60098;SDS011;62818;49.394;8.686;2023-04-15T00:04:04;7.33;;;3.23;;
60098;SDS011;62818;49.394;8.686;2023-04-15T00:05:05;4.40;;;3.03;;
60098;SDS011;62818;49.394;8.686;2023-04-15T00:06:06;4.57;;;2.90;;
60098;SDS011;62818;49.394;8.686;2023-04-15T00:07:06;6.43;;;3.07;;
60098;SDS011;62818;49.394;8.686;2023-04-15T00:08:07;6.70;;;2.85;;
60098;SDS011;62818;49.394;8.686;2023-04-15T00:09:08;4.67;;;3.03;;
60098;SDS011;62818;49.394;8.686;2023-04-15T00:10:08;5.83;;;3.00;;
60098;SDS011;62818;49.394;8.686;2023-04-15T00:11:09;5.22;;;3.00;;
60098;SDS011;62818;49.394;8.686;2023-04-15T00:12:10;4.20;;;3.00;;
60098;SDS011;62818;49.394;8.686;2023-04-15T00:13:11;3.53;;;2.83;;
60098;SDS011;62818;49.394;8.686;2023-04-15T00:14:12;7.20;;;3.43;;
60098;SDS011;62818;49.394;8.686;2023-04-15T00:15:12;4.33;;;2.90;;
60098;SDS011;62818;49.394;8.686;2023-04-15T00:16:13;5.73;;;2.90;;
60098;SDS011;62818;49.394;8.686;2023-04-15T00:17:13;5.17;;;3.00;;
60098;SDS011;62818;49.394;8.686;2023-04-15T00:18:14;6.00;;;3.53;;
60098;SDS011;62818;49.394;8.686;2023-04-15T00:19:14;4.37;;;2.90;;
60098;SDS011;62818;49.394;8.686;2023-04-15T00:20:15;7.33;;;3.10;;
60098;SDS011;62818;49.394;8.686;2023-04-15T00:21:15;5.63;;;3.37;;
60098;SDS011;62818;49.394;8.686;2023-04-15T00:22:16;5.13;;;3.00;;
60098;SDS011;62818;49.394;8.686;2023-04-15T00:23:20;4.73;;;2.53;;
60098;SDS011;62818;49.394;8.686;2023-04-15T00:24:20;4.90;;;3.10;;
60098;SDS011;62818;49.394;8.686;2023-04-15T00:25:21;5.27;;;3.00;;
60098;SDS011;62818;49.394;8.686;2023-04-15T00:26:22;4.78;;;3.05;;
60098;SDS011;62818;49.394;8.686;2023-04-15T00:27:22;5.37;;;3.07;;
60098;SDS011;62818;49.394;8.686;2023-04-15T00:28:23;3.53;;;2.90;;
60098;SDS011;62818;49.394;8.686;2023-04-15T00:29:24;5.60;;;3.00;;
60098;SDS011;62818;49.394;8.686;2023-04-15T00:30:25;5.72;;;2.95;;
60098;SDS011;62818;49.394;8.686;2023-04-15T00:31:25;4.47;;;3.10;;
60098;SDS011;62818;49.394;8.686;2023-04-15T00:32:26;6.90;;;3.27;;
60098;SDS011;62818;49.394;8.686;2023-04-15T00:33:26;7.60;;;3.20;;
60098;SDS011;62818;49.394;8.686;2023-04-15T00:34:27;5.07;;;2.97;;
60098;SDS011;62818;49.394;8.686;2023-04-15T00:35:28;6.18;;;3.13;;
60098;SDS011;62818;49.394;8.686;2023-04-15T00:36:31;6.80;;;2.88;;
60098;SDS011;62818;49.394;8.686;2023-04-15T00:37:33;4.15;;;3.17;;
60098;SDS011;62818;49.394;8.686;2023-04-15T00:38:34;8.20;;;3.35;;
60098;SDS011;62818;49.394;8.686;2023-04-15T00:39:39;3.90;;;2.70;;
60098;SDS011;62818;49.394;8.686;2023-04-15T00:40:40;8.10;;;2.60;;
60098;SDS011;62818;49.394;8.686;2023-04-15T00:41:42;6.88;;;3.03;;
60098;SDS011;62818;49.394;8.686;2023-04-15T00:42:44;5.22;;;3.17;;
60098;SDS011;62818;49.394;8.686;2023-04-15T00:43:45;4.00;;;3.07;;
60098;SDS011;62818;49.394;8.686;2023-04-15T00:44:48;6.22;;;2.90;;
60098;SDS011;62818;49.394;8.686;2023-04-15T00:45:49;5.20;;;2.80;;
60098;SDS011;62818;49.394;8.686;2023-04-15T00:46:53;7.25;;;3.33;;
60098;SDS011;62818;49.394;8.686;2023-04-15T00:47:54;3.58;;;2.85;;
60098;SDS011;62818;49.394;8.686;2023-04-15T00:48:55;6.05;;;3.00;;
60098;SDS011;62818;49.394;8.686;2023-04-15T00:49:56;5.47;;;2.83;;
60098;SDS011;62818;49.394;8.686;2023-04-15T00:50:57;6.27;;;2.97;;
60098;SDS011;62818;49.394;8.686;2023-04-15T00:51:57;3.75;;;2.97;;
60098;SDS011;62818;49.394;8.686;2023-04-15T00:52:58;9.10;;;3.10;;
60098;SDS011;62818;49.394;8.686;2023-04-15T00:53:59;5.67;;;3.03;;
60098;SDS011;62818;49.394;8.686;2023-04-15T00:54:59;4.97;;;2.92;;
60098;SDS011;62818;49.394;8.686;2023-04-15T00:56:00;7.13;;;3.00;;
60098;SDS011;62818;49.394;8.686;2023-04-15T00:57:04;4.70;;;2.60;;
60098;SDS011;62818;49.394;8.686;2023-04-15T00:58:06;4.90;;;2.78;;
60098;SDS011;62818;49.394;8.686;2023-04-15T00:59:07;6.68;;;2.90;;
60098;SDS011;62818;49.394;8.686;2023-04-15T01:00:08;5.80;;;3.05;;
60098;SDS011;62818;49.394;8.686;2023-04-15T01:01:12;6.28;;;2.78;;
60098;SDS011;62818;49.394;8.686;2023-04-15T01:02:13;7.67;;;3.00;;
60098;SDS011;62818;49.394;8.686;2023-04-15T01:03:14;4.18;;;3.03;;
60098;SDS011;62818;49.394;8.686;2023-04-15T01:04:15;11.90;;;3.20;;
60098;SDS011;62818;49.394;8.686;2023-04-15T01:05:18;7.18;;;2.72;;
60098;SDS011;62818;49.394;8.686;2023-04-15T01:06:19;3.80;;;2.90;;
60098;SDS011;62818;49.394;8.686;2023-04-15T01:07:20;5.78;;;3.05;;
60098;SDS011;62818;49.394;8.686;2023-04-15T01:08:20;5.30;;;2.83;;
60098;SDS011;62818;49.394;8.686;2023-04-15T01:09:21;7.07;;;2.90;;
60098;SDS011;62818;49.394;8.686;2023-04-15T01:10:21;9.27;;;3.20;;
60098;SDS011;62818;49.394;8.686;2023-04-15T01:11:22;6.67;;;2.87;;
60098;SDS011;62818;49.394;8.686;2023-04-15T01:12:27;5.43;;;3.10;;
60098;SDS011;62818;49.394;8.686;2023-04-15T01:13:28;5.13;;;3.13;;
60098;SDS011;62818;49.394;8.686;2023-04-15T01:14:30;10.10;;;5.07;;
60098;SDS011;62818;49.394;8.686;2023-04-15T01:15:31;7.43;;;4.75;;
60098;SDS011;62818;49.394;8.686;2023-04-15T01:16:31;8.73;;;4.10;;
60098;SDS011;62818;49.394;8.686;2023-04-15T01:17:32;4.73;;;3.57;;
60098;SDS011;62818;49.394;8.686;2023-04-15T01:18:33;7.18;;;3.22;;
60098;SDS011;62818;49.394;8.686;2023-04-15T01:19:36;5.20;;;3.25;;
60098;SDS011;62818;49.394;8.686;2023-04-15T01:20:37;6.43;;;3.20;;
60098;SDS011;62818;49.394;8.686;2023-04-15T01:21:38;7.85;;;3.60;;
60098;SDS011;62818;49.394;8.686;2023-04-15T01:22:39;8.07;;;3.33;;
60098;SDS011;62818;49.394;8.686;2023-04-15T01:23:40;4.77;;;2.87;;
60098;SDS011;62818;49.394;8.686;2023-04-15T01:24:50;5.55;;;2.97;;
60098;SDS011;62818;49.394;8.686;2023-04-15T01:26:01;4.93;;;3.10;;
60098;SDS011;62818;49.394;8.686;2023-04-15T01:27:03;7.47;;;3.28;;
60098;SDS011;62818;49.394;8.686;2023-04-15T01:28:04;4.22;;;3.00;;
60098;SDS011;62818;49.394;8.686;2023-04-15T01:29:05;4.10;;;3.00;;
60098;SDS011;62818;49.394;8.686;2023-04-15T01:30:06;6.33;;;3.50;;
60098;SDS011;62818;49.394;8.686;2023-04-15T01:31:08;4.53;;;3.50;;
60098;SDS011;62818;49.394;8.686;2023-04-15T01:32:12;6.32;;;3.60;;
60098;SDS011;62818;49.394;8.686;2023-04-15T01:33:13;3.77;;;3.23;;
60098;SDS011;62818;49.394;8.686;2023-04-15T01:34:14;5.07;;;3.10;;
60098;SDS011;62818;49.394;8.686;2023-04-15T01:35:14;6.70;;;3.10;;
60098;SDS011;62818;49.394;8.686;2023-04-15T01:36:14;10.90;;;3.20;;
60098;SDS011;62818;49.394;8.686;2023-04-15T01:37:15;5.77;;;3.10;;
60098;SDS011;62818;49.394;8.686;2023-04-15T01:38:15;7.20;;;2.93;;
60098;SDS011;62818;49.394;8.686;2023-04-15T01:39:17;6.93;;;3.10;;
60098;SDS011;62818;49.394;8.686;2023-04-15T01:40:18;4.50;;;2.92;;
60098;SDS011;62818;49.394;8.686;2023-04-15T01:41:25;5.53;;;3.15;;
60098;SDS011;62818;49.394;8.686;2023-04-15T01:42:27;4.30;;;2.72;;
60098;SDS011;62818;49.394;8.686;2023-04-15T01:43:28;3.67;;;2.90;;
60098;SDS011;62818;49.394;8.686;2023-04-15T01:44:28;6.83;;;2.90;;
60098;SDS011;62818;49.394;8.686;2023-04-15T01:45:29;6.37;;;2.67;;
60098;SDS011;62818;49.394;8.686;2023-04-15T01:46:30;5.35;;;2.90;;
60098;SDS011;62818;49.394;8.686;2023-04-15T01:47:30;5.17;;;2.90;;
60098;SDS011;62818;49.394;8.686;2023-04-15T01:48:31;6.37;;;2.77;;
60098;SDS011;62818;49.394;8.686;2023-04-15T01:49:32;5.15;;;2.80;;
60098;SDS011;62818;49.394;8.686;2023-04-15T01:50:35;3.53;;;2.95;;
60098;SDS011;62818;49.394;8.686;2023-04-15T01:51:37;7.18;;;2.80;;
60098;SDS011;62818;49.394;8.686;2023-04-15T01:52:37;7.93;;;3.07;;
60098;SDS011;62818;49.394;8.686;2023-04-15T01:53:38;4.20;;;2.90;;
60098;SDS011;62818;49.394;8.686;2023-04-15T01:54:38;3.57;;;2.60;;
60098;SDS011;62818;49.394;8.686;2023-04-15T01:55:39;4.63;;;3.07;;
60098;SDS011;62818;49.394;8.686;2023-04-15T01:56:40;5.43;;;2.92;;
60098;SDS011;62818;49.394;8.686;2023-04-15T01:57:41;5.60;;;2.60;;
60098;SDS011;62818;49.394;8.686;2023-04-15T01:58:41;7.17;;;2.73;;
60098;SDS011;62818;49.394;8.686;2023-04-15T01:59:42;3.10;;;2.83;;
60098;SDS011;62818;49.394;8.686;2023-04-15T02:00:43;4.73;;;2.77;;
60098;SDS011;62818;49.394;8.686;2023-04-15T02:01:44;6.32;;;2.83;;
60098;SDS011;62818;49.394;8.686;2023-04-15T02:02:45;5.05;;;2.97;;
60098;SDS011;62818;49.394;8.686;2023-04-15T02:03:46;3.80;;;2.90;;
60098;SDS011;62818;49.394;8.686;2023-04-15T02:04:46;3.50;;;3.20;;
60098;SDS011;62818;49.394;8.686;2023-04-15T02:05:47;3.50;;;2.40;;
60098;SDS011;62818;49.394;8.686;2023-04-15T02:06:48;3.80;;;3.05;;
60098;SDS011;62818;49.394;8.686;2023-04-15T02:07:48;6.60;;;3.40;;
60098;SDS011;62818;49.394;8.686;2023-04-15T02:08:49;5.40;;;2.97;;
60098;SDS011;62818;49.394;8.686;2023-04-15T02:09:49;5.50;;;3.40;;
60098;SDS011;62818;49.394;8.686;2023-04-15T02:10:50;6.17;;;3.20;;
60098;SDS011;62818;49.394;8.686;2023-04-15T02:11:51;4.60;;;3.33;;
60098;SDS011;62818;49.394;8.686;2023-04-15T02:12:53;5.75;;;3.35;;
60098;SDS011;62818;49.394;8.686;2023-04-15T02:13:53;6.40;;;3.40;;
60098;SDS011;62818;49.394;8.686;2023-04-15T02:14:54;6.27;;;3.23;;
60098;SDS011;62818;49.394;8.686;2023-04-15T02:15:57;6.50;;;3.13;;
60098;SDS011;62818;49.394;8.686;2023-04-15T02:16:58;4.38;;;3.10;;
60098;SDS011;62818;49.394;8.686;2023-04-15T02:18:06;4.57;;;3.05;;
60098;SDS011;62818;49.394;8.686;2023-04-15T02:19:09;6.60;;;3.63;;
60098;SDS011;62818;49.394;8.686;2023-04-15T02:20:10;7.53;;;3.60;;
60098;SDS011;62818;49.394;8.686;2023-04-15T02:21:11;6.07;;;3.20;;
60098;SDS011;62818;49.394;8.686;2023-04-15T02:22:11;6.28;;;3.47;;
60098;SDS011;62818;49.394;8.686;2023-04-15T02:23:17;7.18;;;3.25;;
60098;SDS011;62818;49.394;8.686;2023-04-15T02:24:17;6.43;;;3.40;;
60098;SDS011;62818;49.394;8.686;2023-04-15T02:25:18;5.80;;;3.27;;
60098;SDS011;62818;49.394;8.686;2023-04-15T02:26:19;3.85;;;3.00;;
60098;SDS011;62818;49.394;8.686;2023-04-15T02:27:21;6.78;;;3.55;;
60098;SDS011;62818;49.394;8.686;2023-04-15T02:28:21;4.60;;;3.27;;
60098;SDS011;62818;49.394;8.686;2023-04-15T02:29:22;4.90;;;3.13;;
60098;SDS011;62818;49.394;8.686;2023-04-15T02:30:22;5.50;;;3.60;;
60098;SDS011;62818;49.394;8.686;2023-04-15T02:32:25;4.35;;;3.22;;
60098;SDS011;62818;49.394;8.686;2023-04-15T02:33:25;6.00;;;3.07;;
60098;SDS011;62818;49.394;8.686;2023-04-15T02:34:26;9.20;;;3.63;;
60098;SDS011;62818;49.394;8.686;2023-04-15T02:35:26;6.60;;;3.00;;
60098;SDS011;62818;49.394;8.686;2023-04-15T02:36:27;5.63;;;3.00;;
60098;SDS011;62818;49.394;8.686;2023-04-15T02:38:30;7.03;;;3.45;;
60098;SDS011;62818;49.394;8.686;2023-04-15T02:39:40;4.37;;;3.43;;
60098;SDS011;62818;49.394;8.686;2023-04-15T02:41:11;4.22;;;3.50;;
60098;SDS011;62818;49.394;8.686;2023-04-15T02:42:11;7.90;;;3.30;;
60098;SDS011;62818;49.394;8.686;2023-04-15T02:43:12;5.97;;;3.30;;
60098;SDS011;62818;49.394;8.686;2023-04-15T02:44:12;5.03;;;3.20;;
60098;SDS011;62818;49.394;8.686;2023-04-15T02:45:13;5.07;;;3.30;;
60098;SDS011;62818;49.394;8.686;2023-04-15T02:46:13;8.07;;;3.23;;
60098;SDS011;62818;49.394;8.686;2023-04-15T02:47:14;4.57;;;3.33;;
60098;SDS011;62818;49.394;8.686;2023-04-15T02:48:15;5.07;;;3.10;;
60098;SDS011;62818;49.394;8.686;2023-04-15T02:49:17;8.32;;;3.17;;
60098;SDS011;62818;49.394;8.686;2023-04-15T02:50:18;3.53;;;3.10;;
60098;SDS011;62818;49.394;8.686;2023-04-15T02:51:19;3.50;;;3.10;;
60098;SDS011;62818;49.394;8.686;2023-04-15T02:52:21;4.22;;;3.15;;
60098;SDS011;62818;49.394;8.686;2023-04-15T02:54:25;10.52;;;3.30;;
60098;SDS011;62818;49.394;8.686;2023-04-15T02:55:29;7.57;;;3.53;;
60098;SDS011;62818;49.394;8.686;2023-04-15T02:56:29;3.60;;;3.30;;
60098;SDS011;62818;49.394;8.686;2023-04-15T02:57:30;6.83;;;3.10;;
60098;SDS011;62818;49.394;8.686;2023-04-15T02:58:31;4.93;;;3.10;;
60098;SDS011;62818;49.394;8.686;2023-04-15T02:59:31;4.23;;;3.40;;
60098;SDS011;62818;49.394;8.686;2023-04-15T03:00:32;5.20;;;3.30;;
60098;SDS011;62818;49.394;8.686;2023-04-15T03:01:32;3.83;;;3.30;;
60098;SDS011;62818;49.394;8.686;2023-04-15T03:02:36;6.43;;;3.03;;
60098;SDS011;62818;49.394;8.686;2023-04-15T03:03:38;5.75;;;3.40;;
60098;SDS011;62818;49.394;8.686;2023-04-15T03:04:39;3.40;;;3.10;;
60098;SDS011;62818;49.394;8.686;2023-04-15T03:05:39;5.13;;;3.57;;
60098;SDS011;62818;49.394;8.686;2023-04-15T03:06:40;3.83;;;3.30;;
60098;SDS011;62818;49.394;8.686;2023-04-15T03:07:41;7.10;;;3.43;;
60098;SDS011;62818;49.394;8.686;2023-04-15T03:08:41;4.87;;;3.20;;
60098;SDS011;62818;49.394;8.686;2023-04-15T03:09:42;3.77;;;2.83;;
60098;SDS011;62818;49.394;8.686;2023-04-15T03:10:42;5.23;;;3.20;;
60098;SDS011;62818;49.394;8.686;2023-04-15T03:11:43;5.00;;;3.17;;
60098;SDS011;62818;49.394;8.686;2023-04-15T03:12:43;7.13;;;3.40;;
60098;SDS011;62818;49.394;8.686;2023-04-15T03:13:44;8.63;;;3.45;;
60098;SDS011;62818;49.394;8.686;2023-04-15T03:14:45;5.00;;;3.30;;
60098;SDS011;62818;49.394;8.686;2023-04-15T03:15:45;9.13;;;3.20;;
60098;SDS011;62818;49.394;8.686;2023-04-15T03:16:47;5.20;;;3.50;;
60098;SDS011;62818;49.394;8.686;2023-04-15T03:17:49;5.68;;;3.22;;
60098;SDS011;62818;49.394;8.686;2023-04-15T03:18:50;8.30;;;3.80;;
60098;SDS011;62818;49.394;8.686;2023-04-15T03:19:50;7.13;;;3.50;;
60098;SDS011;62818;49.394;8.686;2023-04-15T03:20:53;6.03;;;3.50;;
60098;SDS011;62818;49.394;8.686;2023-04-15T03:21:54;4.53;;;3.50;;
60098;SDS011;62818;49.394;8.686;2023-04-15T03:22:54;7.07;;;3.63;;
60098;SDS011;62818;49.394;8.686;2023-04-15T03:23:55;8.83;;;3.37;;
60098;SDS011;62818;49.394;8.686;2023-04-15T03:24:59;4.80;;;3.42;;
60098;SDS011;62818;49.394;8.686;2023-04-15T03:26:03;5.55;;;3.50;;
60098;SDS011;62818;49.394;8.686;2023-04-15T03:27:04;4.15;;;3.08;;
60098;SDS011;62818;49.394;8.686;2023-04-15T03:28:08;6.20;;;3.55;;
60098;SDS011;62818;49.394;8.686;2023-04-15T03:29:08;4.00;;;3.20;;
60098;SDS011;62818;49.394;8.686;2023-04-15T03:30:09;4.03;;;3.47;;
60098;SDS011;62818;49.394;8.686;2023-04-15T03:31:13;8.02;;;4.10;;
60098;SDS011;62818;49.394;8.686;2023-04-15T03:32:14;4.40;;;3.10;;
60098;SDS011;62818;49.394;8.686;2023-04-15T03:33:15;3.53;;;3.20;;
60098;SDS011;62818;49.394;8.686;2023-04-15T03:34:15;5.60;;;3.70;;
60098;SDS011;62818;49.394;8.686;2023-04-15T03:35:15;6.17;;;3.50;;
60098;SDS011;62818;49.394;8.686;2023-04-15T03:36:16;4.20;;;3.60;;
60098;SDS011;62818;49.394;8.686;2023-04-15T03:37:17;13.07;;;4.10;;
60098;SDS011;62818;49.394;8.686;2023-04-15T03:38:17;5.73;;;4.10;;
60098;SDS011;62818;49.394;8.686;2023-04-15T03:39:21;5.13;;;3.63;;
60098;SDS011;62818;49.394;8.686;2023-04-15T03:40:21;5.20;;;3.45;;
60098;SDS011;62818;49.394;8.686;2023-04-15T03:41:22;6.60;;;3.50;;
60098;SDS011;62818;49.394;8.686;2023-04-15T03:42:22;4.55;;;3.30;;
60098;SDS011;62818;49.394;8.686;2023-04-15T03:43:23;4.80;;;3.47;;
60098;SDS011;62818;49.394;8.686;2023-04-15T03:44:25;9.17;;;3.57;;
60098;SDS011;62818;49.394;8.686;2023-04-15T03:45:25;6.18;;;3.35;;
60098;SDS011;62818;49.394;8.686;2023-04-15T03:46:26;5.80;;;3.70;;
60098;SDS011;62818;49.394;8.686;2023-04-15T03:47:26;11.17;;;4.30;;
60098;SDS011;62818;49.394;8.686;2023-04-15T03:48:27;7.13;;;3.90;;
60098;SDS011;62818;49.394;8.686;2023-04-15T03:49:27;7.20;;;3.87;;
60098;SDS011;62818;49.394;8.686;2023-04-15T03:50:28;7.80;;;4.40;;
60098;SDS011;62818;49.394;8.686;2023-04-15T03:51:28;6.50;;;3.97;;
60098;SDS011;62818;49.394;8.686;2023-04-15T03:52:30;5.63;;;3.95;;
60098;SDS011;62818;49.394;8.686;2023-04-15T03:53:30;7.43;;;3.90;;
60098;SDS011;62818;49.394;8.686;2023-04-15T03:54:31;6.30;;;4.17;;
60098;SDS011;62818;49.394;8.686;2023-04-15T03:55:34;7.22;;;4.22;;
60098;SDS011;62818;49.394;8.686;2023-04-15T03:56:35;7.00;;;3.70;;
60098;SDS011;62818;49.394;8.686;2023-04-15T03:57:35;6.43;;;3.93;;
60098;SDS011;62818;49.394;8.686;2023-04-15T03:58:37;7.30;;;3.75;;
60098;SDS011;62818;49.394;8.686;2023-04-15T03:59:41;5.72;;;4.40;;
60098;SDS011;62818;49.394;8.686;2023-04-15T04:00:41;8.13;;;4.37;;
60098;SDS011;62818;49.394;8.686;2023-04-15T04:01:42;5.83;;;4.07;;
60098;SDS011;62818;49.394;8.686;2023-04-15T04:02:42;6.83;;;4.30;;
60098;SDS011;62818;49.394;8.686;2023-04-15T04:03:44;10.85;;;4.18;;
60098;SDS011;62818;49.394;8.686;2023-04-15T04:04:45;4.90;;;4.20;;
60098;SDS011;62818;49.394;8.686;2023-04-15T04:05:45;6.10;;;4.33;;
60098;SDS011;62818;49.394;8.686;2023-04-15T04:06:46;8.03;;;4.43;;
60098;SDS011;62818;49.394;8.686;2023-04-15T04:07:46;9.80;;;4.97;;
60098;SDS011;62818;49.394;8.686;2023-04-15T04:08:47;7.65;;;4.60;;
60098;SDS011;62818;49.394;8.686;2023-04-15T04:09:48;13.67;;;5.17;;
60098;SDS011;62818;49.394;8.686;2023-04-15T04:10:48;7.83;;;4.60;;
60098;SDS011;62818;49.394;8.686;2023-04-15T04:11:49;7.80;;;5.57;;
60098;SDS011;62818;49.394;8.686;2023-04-15T04:12:49;8.63;;;5.53;;
60098;SDS011;62818;49.394;8.686;2023-04-15T04:13:50;10.57;;;5.47;;
60098;SDS011;62818;49.394;8.686;2023-04-15T04:14:50;7.57;;;5.23;;
60098;SDS011;62818;49.394;8.686;2023-04-15T04:15:51;11.47;;;5.57;;
60098;SDS011;62818;49.394;8.686;2023-04-15T04:16:51;10.07;;;4.60;;
60098;SDS011;62818;49.394;8.686;2023-04-15T04:17:51;8.33;;;4.40;;
60098;SDS011;62818;49.394;8.686;2023-04-15T04:18:52;8.60;;;4.80;;
60098;SDS011;62818;49.394;8.686;2023-04-15T04:19:52;10.20;;;4.73;;
60098;SDS011;62818;49.394;8.686;2023-04-15T04:20:53;6.57;;;4.40;;
60098;SDS011;62818;49.394;8.686;2023-04-15T04:21:54;8.65;;;4.63;;
60098;SDS011;62818;49.394;8.686;2023-04-15T04:22:54;9.73;;;4.63;;
60098;SDS011;62818;49.394;8.686;2023-04-15T04:23:55;11.37;;;4.67;;
60098;SDS011;62818;49.394;8.686;2023-04-15T04:24:59;6.72;;;4.78;;
60098;SDS011;62818;49.394;8.686;2023-04-15T04:26:01;11.82;;;4.72;;
60098;SDS011;62818;49.394;8.686;2023-04-15T04:27:02;8.53;;;4.53;;
60098;SDS011;62818;49.394;8.686;2023-04-15T04:28:02;9.63;;;4.80;;
60098;SDS011;62818;49.394;8.686;2023-04-15T04:29:03;6.47;;;4.60;;
60098;SDS011;62818;49.394;8.686;2023-04-15T04:30:04;5.83;;;4.60;;
60098;SDS011;62818;49.394;8.686;2023-04-15T04:31:06;6.72;;;4.25;;
60098;SDS011;62818;49.394;8.686;2023-04-15T04:32:06;8.93;;;4.80;;
60098;SDS011;62818;49.394;8.686;2023-04-15T04:33:07;7.40;;;4.10;;
60098;SDS011;62818;49.394;8.686;2023-04-15T04:34:08;6.17;;;4.87;;
60098;SDS011;62818;49.394;8.686;2023-04-15T04:35:08;7.10;;;4.60;;
60098;SDS011;62818;49.394;8.686;2023-04-15T04:36:10;9.40;;;5.00;;
60098;SDS011;62818;49.394;8.686;2023-04-15T04:37:10;9.40;;;5.10;;
60098;SDS011;62818;49.394;8.686;2023-04-15T04:38:13;10.52;;;5.43;;
60098;SDS011;62818;49.394;8.686;2023-04-15T04:39:14;10.20;;;5.93;;
60098;SDS011;62818;49.394;8.686;2023-04-15T04:40:15;13.10;;;6.03;;
60098;SDS011;62818;49.394;8.686;2023-04-15T04:41:15;8.40;;;6.23;;
60098;SDS011;62818;49.394;8.686;2023-04-15T04:42:17;10.57;;;6.30;;
60098;SDS011;62818;49.394;8.686;2023-04-15T04:43:17;10.83;;;5.90;;
60098;SDS011;62818;49.394;8.686;2023-04-15T04:44:18;10.63;;;6.33;;
60098;SDS011;62818;49.394;8.686;2023-04-15T04:45:18;9.53;;;5.80;;
60098;SDS011;62818;49.394;8.686;2023-04-15T04:46:19;9.05;;;6.28;;
60098;SDS011;62818;49.394;8.686;2023-04-15T04:47:20;12.60;;;5.50;;
60098;SDS011;62818;49.394;8.686;2023-04-15T04:48:21;10.53;;;5.60;;
60098;SDS011;62818;49.394;8.686;2023-04-15T04:49:21;16.25;;;5.50;;
60098;SDS011;62818;49.394;8.686;2023-04-15T04:50:22;13.03;;;5.83;;
60098;SDS011;62818;49.394;8.686;2023-04-15T04:51:26;9.80;;;5.85;;
60098;SDS011;62818;49.394;8.686;2023-04-15T04:52:27;10.77;;;5.65;;
60098;SDS011;62818;49.394;8.686;2023-04-15T04:53:27;9.63;;;5.97;;
60098;SDS011;62818;49.394;8.686;2023-04-15T04:54:28;9.63;;;5.97;;
60098;SDS011;62818;49.394;8.686;2023-04-15T04:55:30;10.63;;;5.70;;
60098;SDS011;62818;49.394;8.686;2023-04-15T04:56:30;14.50;;;5.90;;
60098;SDS011;62818;49.394;8.686;2023-04-15T04:57:33;12.13;;;6.53;;
60098;SDS011;62818;49.394;8.686;2023-04-15T04:59:35;9.02;;;5.75;;
60098;SDS011;62818;49.394;8.686;2023-04-15T05:00:36;10.37;;;6.03;;
60098;SDS011;62818;49.394;8.686;2023-04-15T05:01:37;8.65;;;5.43;;
60098;SDS011;62818;49.394;8.686;2023-04-15T05:02:37;10.23;;;5.67;;
60098;SDS011;62818;49.394;8.686;2023-04-15T05:03:38;9.60;;;5.60;;
60098;SDS011;62818;49.394;8.686;2023-04-15T05:04:39;11.37;;;6.33;;
60098;SDS011;62818;49.394;8.686;2023-04-15T05:06:41;12.63;;;5.47;;
60098;SDS011;62818;49.394;8.686;2023-04-15T05:07:41;11.40;;;5.90;;
60098;SDS011;62818;49.394;8.686;2023-04-15T05:08:42;9.43;;;5.17;;
60098;SDS011;62818;49.394;8.686;2023-04-15T05:09:42;11.20;;;5.93;;
60098;SDS011;62818;49.394;8.686;2023-04-15T05:10:43;8.37;;;5.70;;
60098;SDS011;62818;49.394;8.686;2023-04-15T05:11:43;10.20;;;5.60;;
60098;SDS011;62818;49.394;8.686;2023-04-15T05:12:44;11.43;;;6.47;;
60098;SDS011;62818;49.394;8.686;2023-04-15T05:13:44;8.40;;;5.87;;
60098;SDS011;62818;49.394;8.686;2023-04-15T05:14:45;12.10;;;5.93;;
60098;SDS011;62818;49.394;8.686;2023-04-15T05:15:45;10.40;;;6.07;;
60098;SDS011;62818;49.394;8.686;2023-04-15T05:16:46;11.03;;;5.67;;
60098;SDS011;62818;49.394;8.686;2023-04-15T05:17:46;7.37;;;6.00;;
60098;SDS011;62818;49.394;8.686;2023-04-15T05:18:47;8.57;;;6.20;;
60098;SDS011;62818;49.394;8.686;2023-04-15T05:19:47;11.57;;;7.33;;
60098;SDS011;62818;49.394;8.686;2023-04-15T05:20:48;12.47;;;6.17;;
60098;SDS011;62818;49.394;8.686;2023-04-15T05:21:49;12.52;;;6.45;;
60098;SDS011;62818;49.394;8.686;2023-04-15T05:22:49;11.83;;;6.07;;
60098;SDS011;62818;49.394;8.686;2023-04-15T05:23:50;9.40;;;5.77;;
60098;SDS011;62818;49.394;8.686;2023-04-15T05:24:50;13.77;;;5.78;;
60098;SDS011;62818;49.394;8.686;2023-04-15T05:25:51;8.70;;;5.30;;
60098;SDS011;62818;49.394;8.686;2023-04-15T05:26:51;10.00;;;5.90;;
60098;SDS011;62818;49.394;8.686;2023-04-15T05:27:52;8.27;;;5.73;;
60098;SDS011;62818;49.394;8.686;2023-04-15T05:28:52;8.90;;;5.80;;
60098;SDS011;62818;49.394;8.686;2023-04-15T05:29:53;8.20;;;5.80;;
60098;SDS011;62818;49.394;8.686;2023-04-15T05:30:55;12.05;;;6.88;;
60098;SDS011;62818;49.394;8.686;2023-04-15T05:31:56;10.83;;;6.13;;
60098;SDS011;62818;49.394;8.686;2023-04-15T05:32:56;9.27;;;5.77;;
60098;SDS011;62818;49.394;8.686;2023-04-15T05:33:57;7.20;;;5.60;;
60098;SDS011;62818;49.394;8.686;2023-04-15T05:34:57;7.67;;;5.63;;
60098;SDS011;62818;49.394;8.686;2023-04-15T05:35:58;15.23;;;5.90;;
60098;SDS011;62818;49.394;8.686;2023-04-15T05:36:58;12.83;;;6.43;;
60098;SDS011;62818;49.394;8.686;2023-04-15T05:37:58;8.03;;;5.43;;
60098;SDS011;62818;49.394;8.686;2023-04-15T05:38:59;10.10;;;5.93;;
60098;SDS011;62818;49.394;8.686;2023-04-15T05:40:00;8.57;;;5.60;;
60098;SDS011;62818;49.394;8.686;2023-04-15T05:41:01;9.33;;;5.13;;
60098;SDS011;62818;49.394;8.686;2023-04-15T05:42:01;12.80;;;5.70;;
60098;SDS011;62818;49.394;8.686;2023-04-15T05:43:02;10.35;;;6.15;;
60098;SDS011;62818;49.394;8.686;2023-04-15T05:44:03;8.40;;;5.80;;
60098;SDS011;62818;49.394;8.686;2023-04-15T05:45:03;11.17;;;6.00;;
60098;SDS011;62818;49.394;8.686;2023-04-15T05:46:08;8.80;;;5.88;;
60098;SDS011;62818;49.394;8.686;2023-04-15T05:47:08;16.90;;;6.63;;
60098;SDS011;62818;49.394;8.686;2023-04-15T05:48:09;9.88;;;6.32;;
60098;SDS011;62818;49.394;8.686;2023-04-15T05:49:10;9.70;;;6.27;;
60098;SDS011;62818;49.394;8.686;2023-04-15T05:50:11;12.10;;;6.47;;
60098;SDS011;62818;49.394;8.686;2023-04-15T05:51:11;16.20;;;6.57;;
60098;SDS011;62818;49.394;8.686;2023-04-15T05:52:11;16.23;;;6.63;;
60098;SDS011;62818;49.394;8.686;2023-04-15T05:53:12;12.00;;;6.57;;
60098;SDS011;62818;49.394;8.686;2023-04-15T05:54:12;12.60;;;6.60;;
60098;SDS011;62818;49.394;8.686;2023-04-15T05:55:13;18.03;;;6.93;;
60098;SDS011;62818;49.394;8.686;2023-04-15T05:56:13;10.33;;;6.20;;
60098;SDS011;62818;49.394;8.686;2023-04-15T05:57:14;8.97;;;6.60;;
60098;SDS011;62818;49.394;8.686;2023-04-15T05:58:15;15.33;;;6.43;;
60098;SDS011;62818;49.394;8.686;2023-04-15T05:59:15;7.47;;;6.00;;
60098;SDS011;62818;49.394;8.686;2023-04-15T06:00:16;10.33;;;7.30;;
60098;SDS011;62818;49.394;8.686;2023-04-15T06:01:16;12.43;;;6.80;;
60098;SDS011;62818;49.394;8.686;2023-04-15T06:02:17;15.73;;;6.93;;
60098;SDS011;62818;49.394;8.686;2023-04-15T06:03:18;12.47;;;7.03;;
60098;SDS011;62818;49.394;8.686;2023-04-15T06:04:18;12.20;;;6.83;;
60098;SDS011;62818;49.394;8.686;2023-04-15T06:05:19;17.53;;;7.60;;
60098;SDS011;62818;49.394;8.686;2023-04-15T06:06:19;14.97;;;6.53;;
60098;SDS011;62818;49.394;8.686;2023-04-15T06:07:20;15.17;;;7.20;;
60098;SDS011;62818;49.394;8.686;2023-04-15T06:08:20;14.30;;;7.07;;
60098;SDS011;62818;49.394;8.686;2023-04-15T06:09:21;11.03;;;6.93;;
60098;SDS011;62818;49.394;8.686;2023-04-15T06:10:21;15.73;;;6.77;;
60098;SDS011;62818;49.394;8.686;2023-04-15T06:11:22;11.47;;;7.43;;
60098;SDS011;62818;49.394;8.686;2023-04-15T06:12:23;14.75;;;6.25;;
60098;SDS011;62818;49.394;8.686;2023-04-15T06:13:27;13.90;;;6.78;;